Time;durP1;ratioP1;P1;durP2;ratioP2;P2;SDS_P1;SDS_P2;PMS_P1;PMS_P2;Temp;Humidity;BMP_temperature;BMP_pressure;BME280_temperature;BME280_humidity;BME280_pressure;Samples;Min_cycle;Max_cycle;Signal;HPM_P1;HPM_P2
2023/04/04 00:00:42;;;;;;;8.68;4.90;;;-0.80;87.30;;;;;;5081422;28;20121;-65
2023/04/04 00:03:08;;;;;;;6.88;4.47;;;-0.80;86.80;;;;;;5078188;28;20425;-65
2023/04/04 00:05:34;;;;;;;6.32;4.30;;;-0.80;87.00;;;;;;5079506;28;20032;-66
2023/04/04 00:08:01;;;;;;;7.22;4.47;;;-0.90;87.10;;;;;;5086029;28;20177;-66
2023/04/04 00:10:26;;;;;;;8.05;4.40;;;-0.90;87.20;;;;;;5089318;28;20035;-65
2023/04/04 00:12:52;;;;;;;6.50;4.00;;;-1.00;87.10;;;;;;5077147;28;20036;-65
2023/04/04 00:15:17;;;;;;;7.18;4.68;;;-1.00;86.90;;;;;;5093983;28;20028;-65
2023/04/04 00:17:43;;;;;;;6.78;4.20;;;-1.00;86.40;;;;;;5085116;28;20029;-65
2023/04/04 00:20:09;;;;;;;7.40;3.70;;;-1.10;86.40;;;;;;5094115;28;20024;-65
2023/04/04 00:22:34;;;;;;;8.15;4.03;;;-1.10;86.70;;;;;;5094598;28;20427;-65
2023/04/04 00:25:00;;;;;;;5.88;4.20;;;-1.20;86.40;;;;;;5094647;28;20443;-65
2023/04/04 00:27:25;;;;;;;8.32;4.10;;;-1.10;85.40;;;;;;5096768;28;20034;-66
2023/04/04 00:29:51;;;;;;;8.35;4.20;;;-1.10;84.90;;;;;;5094654;28;20019;-65
2023/04/04 00:32:16;;;;;;;6.90;3.67;;;-1.10;84.70;;;;;;5094249;28;20107;-65
2023/04/04 00:34:42;;;;;;;7.32;3.65;;;-1.10;84.90;;;;;;5092832;28;20060;-65
2023/04/04 00:37:11;;;;;;;8.68;3.53;;;-1.10;85.00;;;;;;5083632;28;20028;-65
2023/04/04 00:39:36;;;;;;;11.68;4.43;;;-1.20;85.40;;;;;;5086376;28;20024;-65
2023/04/04 00:42:03;;;;;;;8.05;3.95;;;-1.30;85.70;;;;;;5093112;28;20413;-65
2023/04/04 00:44:30;;;;;;;8.73;4.07;;;-1.30;85.90;;;;;;5096482;28;20044;-65
2023/04/04 00:46:56;;;;;;;8.95;4.25;;;-1.30;86.00;;;;;;5091735;28;20103;-65
2023/04/04 00:49:24;;;;;;;8.55;4.03;;;-1.40;86.20;;;;;;5094671;28;20460;-65
2023/04/04 00:51:49;;;;;;;9.10;4.78;;;-1.40;86.40;;;;;;5094507;28;20073;-65
2023/04/04 00:54:15;;;;;;;5.20;3.30;;;-1.30;85.90;;;;;;5085693;28;20032;-65
2023/04/04 00:56:41;;;;;;;12.30;4.32;;;-1.30;85.70;;;;;;5080919;28;20102;-65
2023/04/04 00:59:07;;;;;;;8.68;4.43;;;-1.30;85.90;;;;;;5083109;28;20060;-65
2023/04/04 01:01:33;;;;;;;7.20;3.85;;;-1.40;86.40;;;;;;5082595;28;20316;-65
2023/04/04 01:03:58;;;;;;;7.50;3.95;;;-1.40;86.40;;;;;;5088035;28;20036;-64
2023/04/04 01:06:25;;;;;;;9.23;4.55;;;-1.30;86.10;;;;;;5085159;28;20103;-65
2023/04/04 01:08:52;;;;;;;8.35;4.50;;;-1.30;86.00;;;;;;5088882;28;20055;-65
2023/04/04 01:11:18;;;;;;;7.97;4.20;;;-1.30;86.20;;;;;;5086721;28;20031;-65
2023/04/04 01:13:44;;;;;;;9.40;4.45;;;-1.30;86.80;;;;;;5089876;28;20033;-65
2023/04/04 01:16:09;;;;;;;7.82;3.95;;;-1.40;87.10;;;;;;5081210;28;20028;-65
2023/04/04 01:18:37;;;;;;;8.75;4.47;;;-1.40;87.00;;;;;;5087479;28;20085;-64
2023/04/04 01:21:10;;;;;;;8.50;4.03;;;-1.50;87.50;;;;;;5079676;28;20432;-65
2023/04/04 01:23:57;;;;;;;9.87;4.20;;;-1.50;87.90;;;;;;5084473;28;20111;-64
2023/04/04 01:26:23;;;;;;;8.00;4.40;;;-1.60;88.10;;;;;;5081229;28;20279;-65
2023/04/04 01:28:49;;;;;;;10.00;4.20;;;-1.50;87.90;;;;;;5090898;28;20141;-65
2023/04/04 01:31:20;;;;;;;9.07;4.07;;;-1.50;87.70;;;;;;5095390;28;20035;-65
2023/04/04 01:33:54;;;;;;;11.75;4.40;;;-1.50;88.10;;;;;;5095188;28;20024;-64
2023/04/04 01:36:30;;;;;;;7.78;4.38;;;-1.70;88.50;;;;;;5090392;28;20428;-65
2023/04/04 01:39:35;;;;;;;6.75;4.03;;;-1.70;89.10;;;;;;5076120;28;20029;-64
2023/04/04 01:42:02;;;;;;;9.57;4.85;;;-1.70;89.00;;;;;;5077688;28;20024;-64
2023/04/04 01:44:27;;;;;;;7.10;4.00;;;-1.60;88.70;;;;;;5093287;28;20036;-64
2023/04/04 01:46:54;;;;;;;10.55;4.70;;;-1.70;88.80;;;;;;5091690;28;20103;-64
2023/04/04 01:49:21;;;;;;;7.10;4.28;;;-1.70;89.40;;;;;;5088182;28;20033;-64
2023/04/04 01:51:47;;;;;;;9.43;4.70;;;-1.70;89.40;;;;;;5076952;28;20028;-64
2023/04/04 01:54:13;;;;;;;7.75;4.15;;;-1.80;89.60;;;;;;5096035;28;20023;-66
2023/04/04 01:56:39;;;;;;;10.05;4.40;;;-1.70;89.40;;;;;;5079190;28;20519;-66
2023/04/04 01:59:04;;;;;;;8.55;3.90;;;-1.80;89.60;;;;;;5074798;28;20025;-64
2023/04/04 02:01:32;;;;;;;7.15;4.40;;;-1.80;89.70;;;;;;5088705;28;20409;-65
2023/04/04 02:03:57;;;;;;;9.55;3.78;;;-1.90;89.90;;;;;;5082275;28;20028;-65
2023/04/04 02:06:23;;;;;;;8.93;4.10;;;-2.00;90.20;;;;;;5078431;28;20031;-65
2023/04/04 02:08:48;;;;;;;7.78;3.88;;;-2.00;90.30;;;;;;5084085;28;20024;-65
2023/04/04 02:11:14;;;;;;;9.80;4.57;;;-2.00;90.50;;;;;;5093875;28;20020;-64
2023/04/04 02:13:43;;;;;;;7.88;4.25;;;-2.00;90.50;;;;;;5074557;28;20028;-64
2023/04/04 02:16:09;;;;;;;10.43;4.43;;;-1.90;90.30;;;;;;5086921;28;20031;-64
2023/04/04 02:18:35;;;;;;;6.95;3.88;;;-1.90;90.00;;;;;;5080487;28;20429;-64
2023/04/04 02:21:00;;;;;;;8.63;4.30;;;-1.90;90.10;;;;;;5095727;28;20031;-64
2023/04/04 02:23:26;;;;;;;6.13;3.72;;;-1.80;90.00;;;;;;5086333;28;20051;-64
2023/04/04 02:25:52;;;;;;;9.13;4.30;;;-1.90;90.10;;;;;;5087962;28;20077;-64
2023/04/04 02:28:18;;;;;;;9.10;4.25;;;-1.90;89.90;;;;;;5083949;28;20024;-64
2023/04/04 02:30:43;;;;;;;6.95;3.97;;;-1.90;90.10;;;;;;5089988;28;20044;-64
2023/04/04 02:33:09;;;;;;;8.80;3.92;;;-1.90;90.50;;;;;;5089066;28;20212;-64
2023/04/04 02:35:34;;;;;;;8.75;3.95;;;-1.90;90.40;;;;;;5087794;28;20035;-64
2023/04/04 02:38:00;;;;;;;9.40;4.43;;;-1.90;90.50;;;;;;5089995;28;20117;-64
2023/04/04 02:40:26;;;;;;;8.15;4.22;;;-2.00;90.80;;;;;;5091577;28;20153;-64
2023/04/04 02:42:51;;;;;;;10.55;4.53;;;-2.00;90.90;;;;;;5086068;28;20028;-64
2023/04/04 02:45:17;;;;;;;12.00;4.18;;;-2.00;91.00;;;;;;5081944;28;20020;-64
2023/04/04 02:47:49;;;;;;;7.90;3.88;;;-2.00;91.00;;;;;;5084540;28;20031;-64
2023/04/04 02:50:15;;;;;;;7.53;4.13;;;-2.00;91.20;;;;;;5093149;28;20032;-64
2023/04/04 02:52:40;;;;;;;8.95;4.10;;;-2.00;91.10;;;;;;5085928;28;20029;-64
2023/04/04 02:55:07;;;;;;;8.30;4.45;;;-2.10;91.40;;;;;;5077260;28;20413;-64
2023/04/04 02:57:33;;;;;;;8.63;4.18;;;-2.10;91.60;;;;;;5086575;28;20063;-64
2023/04/04 02:59:58;;;;;;;11.43;4.53;;;-2.10;91.60;;;;;;5074712;28;20084;-64
2023/04/04 03:02:24;;;;;;;7.55;4.10;;;-2.20;91.80;;;;;;5084755;28;20016;-64
2023/04/04 03:04:50;;;;;;;7.70;4.13;;;-2.20;92.10;;;;;;5086455;28;20043;-64
2023/04/04 03:07:16;;;;;;;8.13;4.22;;;-2.20;92.00;;;;;;5084779;28;20012;-64
2023/04/04 03:09:44;;;;;;;9.82;4.05;;;-2.20;92.20;;;;;;5075946;28;20052;-64
2023/04/04 03:12:10;;;;;;;6.47;3.63;;;-2.10;92.00;;;;;;5075095;28;20032;-63
2023/04/04 03:14:35;;;;;;;9.38;4.10;;;-2.10;91.90;;;;;;5079137;28;20063;-64
2023/04/04 03:17:02;;;;;;;8.90;4.03;;;-2.10;91.90;;;;;;5087380;28;20036;-63
2023/04/04 03:19:27;;;;;;;8.23;4.20;;;-2.10;91.90;;;;;;5077034;28;20032;-63
2023/04/04 03:21:53;;;;;;;8.23;3.78;;;-2.10;92.00;;;;;;5094282;28;20028;-64
2023/04/04 03:24:18;;;;;;;11.15;4.40;;;-2.10;92.00;;;;;;5094533;28;20071;-62
2023/04/04 03:26:44;;;;;;;9.35;4.03;;;-2.10;92.00;;;;;;5075807;28;20406;-63
2023/04/04 03:29:10;;;;;;;7.47;4.88;;;-2.20;92.20;;;;;;5074035;28;20645;-62
2023/04/04 03:31:35;;;;;;;7.20;4.07;;;-2.20;92.20;;;;;;5088180;28;20024;-63
2023/04/04 03:34:01;;;;;;;8.32;4.03;;;-2.20;92.30;;;;;;5093307;28;20078;-63
2023/04/04 03:36:26;;;;;;;10.45;4.38;;;-2.20;92.40;;;;;;5097237;28;20027;-64
2023/04/04 03:38:52;;;;;;;8.85;4.65;;;-2.30;92.40;;;;;;5088224;28;20032;-63
2023/04/04 03:41:17;;;;;;;9.07;4.38;;;-2.30;92.60;;;;;;5087212;28;20036;-64
2023/04/04 03:43:44;;;;;;;10.40;4.03;;;-2.40;92.90;;;;;;5092343;28;20032;-63
2023/04/04 03:46:09;;;;;;;8.75;4.32;;;-2.40;92.90;;;;;;5094302;28;20039;-64
2023/04/04 03:48:36;;;;;;;7.57;4.03;;;-2.40;92.90;;;;;;5089615;28;20025;-64
2023/04/04 03:51:03;;;;;;;8.68;4.22;;;-2.40;92.90;;;;;;5091064;28;20028;-64
2023/04/04 03:53:29;;;;;;;7.22;4.18;;;-2.40;92.80;;;;;;5095912;28;20039;-64
2023/04/04 03:55:55;;;;;;;8.43;4.43;;;-2.40;93.10;;;;;;5086753;28;20307;-64
2023/04/04 03:58:21;;;;;;;9.05;4.82;;;-2.40;92.90;;;;;;5081003;28;20127;-64
2023/04/04 04:00:47;;;;;;;11.15;4.75;;;-2.40;93.20;;;;;;5097620;28;20097;-64
2023/04/04 04:03:13;;;;;;;9.10;4.10;;;-2.50;93.30;;;;;;5098439;28;20029;-64
2023/04/04 04:05:38;;;;;;;8.73;4.68;;;-2.60;93.60;;;;;;5091880;28;20028;-64
2023/04/04 04:08:04;;;;;;;10.70;4.43;;;-2.60;93.60;;;;;;5078807;28;20031;-64
2023/04/04 04:10:31;;;;;;;12.50;4.70;;;-2.60;93.70;;;;;;5079784;28;20025;-64
2023/04/04 04:13:03;;;;;;;10.57;5.38;;;-2.60;93.90;;;;;;5081152;28;20028;-64
2023/04/04 04:15:31;;;;;;;9.77;5.10;;;-2.60;93.80;;;;;;5077119;28;20063;-64
2023/04/04 04:17:57;;;;;;;7.18;4.30;;;-2.60;93.80;;;;;;5085672;28;20032;-64
2023/04/04 04:20:22;;;;;;;9.88;4.82;;;-2.60;93.90;;;;;;5087874;28;20496;-64
2023/04/04 04:22:48;;;;;;;7.15;4.25;;;-2.60;94.00;;;;;;5078764;28;20441;-64
2023/04/04 04:25:17;;;;;;;8.30;4.78;;;-2.70;94.30;;;;;;5096147;28;20031;-64
2023/04/04 04:27:43;;;;;;;11.15;4.93;;;-2.70;94.30;;;;;;5078712;28;20082;-64
2023/04/04 04:30:09;;;;;;;9.73;4.55;;;-2.80;94.30;;;;;;5094652;28;20075;-64
2023/04/04 04:32:35;;;;;;;10.82;4.55;;;-2.80;94.50;;;;;;5097733;28;20044;-64
2023/04/04 04:35:00;;;;;;;6.93;4.35;;;-2.70;94.40;;;;;;5089045;28;20023;-63
2023/04/04 04:37:28;;;;;;;10.52;4.60;;;-2.80;94.40;;;;;;5091645;28;20024;-63
2023/04/04 04:39:57;;;;;;;10.05;5.22;;;-2.80;94.50;;;;;;5085802;28;20078;-63
2023/04/04 04:42:23;;;;;;;12.38;5.00;;;-2.80;94.60;;;;;;5088087;28;20017;-63
2023/04/04 04:44:48;;;;;;;8.52;5.05;;;-2.90;94.70;;;;;;5087616;28;20142;-63
2023/04/04 04:47:14;;;;;;;9.25;5.22;;;-2.90;94.80;;;;;;5091469;28;20028;-65
2023/04/04 04:49:41;;;;;;;11.02;4.40;;;-3.00;95.00;;;;;;5082080;28;20032;-64
2023/04/04 04:52:06;;;;;;;7.55;4.38;;;-3.00;95.00;;;;;;5086112;28;20024;-64
2023/04/04 04:54:32;;;;;;;10.60;4.63;;;-3.20;95.00;;;;;;5091510;28;20035;-64
2023/04/04 04:57:00;;;;;;;7.50;4.05;;;-3.20;95.50;;;;;;5088223;28;20047;-64
2023/04/04 04:59:25;;;;;;;7.60;4.57;;;-3.20;95.60;;;;;;5095963;28;20028;-64
2023/04/04 05:01:51;;;;;;;9.25;4.22;;;-3.10;95.60;;;;;;5085993;28;20036;-64
2023/04/04 05:04:16;;;;;;;10.73;5.47;;;-3.10;95.40;;;;;;5090137;28;20063;-64
2023/04/04 05:06:42;;;;;;;9.20;4.45;;;-3.00;95.30;;;;;;5097113;28;20047;-64
2023/04/04 05:09:08;;;;;;;9.45;5.00;;;-3.00;95.30;;;;;;5092514;28;20074;-63
2023/04/04 05:11:33;;;;;;;12.27;5.45;;;-2.90;94.80;;;;;;5083228;28;20036;-63
2023/04/04 05:13:59;;;;;;;10.68;5.63;;;-2.90;94.80;;;;;;5076661;28;20032;-63
2023/04/04 05:16:24;;;;;;;12.75;5.57;;;-2.80;94.60;;;;;;5085711;28;20025;-63
2023/04/04 05:18:50;;;;;;;12.18;6.20;;;-2.80;94.30;;;;;;5077585;28;20021;-64
2023/04/04 05:21:16;;;;;;;12.60;6.85;;;-2.80;94.30;;;;;;5077871;28;20029;-63
2023/04/04 05:23:43;;;;;;;11.02;6.20;;;-2.80;94.40;;;;;;5080404;28;20028;-63
2023/04/04 05:26:09;;;;;;;14.32;5.40;;;-2.80;94.40;;;;;;5092450;28;20017;-63
2023/04/04 05:28:35;;;;;;;15.73;5.20;;;-2.80;94.30;;;;;;5076180;28;20454;-63
2023/04/04 05:31:01;;;;;;;11.48;5.75;;;-2.70;93.90;;;;;;5088781;28;20012;-63
2023/04/04 05:33:26;;;;;;;12.05;4.95;;;-2.70;93.90;;;;;;5091410;28;20102;-63
2023/04/04 05:35:52;;;;;;;10.52;5.57;;;-2.70;93.70;;;;;;5079166;28;20108;-63
2023/04/04 05:38:17;;;;;;;14.20;5.88;;;-2.70;93.80;;;;;;5079019;28;20089;-63
2023/04/04 05:40:44;;;;;;;8.48;4.60;;;-2.70;93.80;;;;;;5096249;28;20028;-63
2023/04/04 05:43:10;;;;;;;8.93;4.95;;;-2.70;93.50;;;;;;5092912;28;20016;-63
2023/04/04 05:45:35;;;;;;;7.75;4.55;;;-2.70;93.30;;;;;;5077729;28;20413;-63
2023/04/04 05:48:04;;;;;;;11.27;4.82;;;-2.60;93.40;;;;;;5089238;28;20024;-64
2023/04/04 05:50:30;;;;;;;10.73;5.28;;;-2.60;93.00;;;;;;5082258;28;20123;-63
2023/04/04 05:52:56;;;;;;;9.45;4.72;;;-2.50;92.40;;;;;;5083553;28;20329;-63
2023/04/04 05:55:21;;;;;;;9.15;4.07;;;-2.40;92.30;;;;;;5078498;28;20040;-63
2023/04/04 05:57:48;;;;;;;8.77;5.05;;;-2.30;91.80;;;;;;5081809;28;20490;-63
2023/04/04 06:00:14;;;;;;;7.90;5.32;;;-2.20;91.40;;;;;;5081228;28;20016;-63
2023/04/04 06:02:40;;;;;;;8.57;5.15;;;-2.10;91.10;;;;;;5086904;28;20020;-63
2023/04/04 06:05:07;;;;;;;13.93;5.95;;;-2.00;90.80;;;;;;5083569;28;20035;-63
2023/04/04 06:07:32;;;;;;;9.75;5.32;;;-1.90;90.40;;;;;;5096483;28;20024;-63
2023/04/04 06:09:58;;;;;;;8.60;4.63;;;-1.80;89.90;;;;;;5082491;28;20321;-63
2023/04/04 06:12:23;;;;;;;9.48;4.88;;;-1.70;89.60;;;;;;5081471;28;20151;-63
2023/04/04 06:14:49;;;;;;;9.10;4.35;;;-1.70;89.10;;;;;;5080241;28;20435;-63
2023/04/04 06:17:15;;;;;;;9.30;4.65;;;-1.50;88.60;;;;;;5084037;28;20016;-63
2023/04/04 06:19:40;;;;;;;10.02;4.43;;;-1.30;87.90;;;;;;5081173;28;20020;-62
2023/04/04 06:22:06;;;;;;;8.98;4.47;;;-0.90;86.80;;;;;;5085236;28;20024;-63
2023/04/04 06:24:32;;;;;;;8.35;4.72;;;-0.60;85.60;;;;;;5081881;28;20081;-62
2023/04/04 06:26:57;;;;;;;8.35;3.95;;;-0.50;84.90;;;;;;5084195;28;20024;-63
2023/04/04 06:29:24;;;;;;;7.70;4.20;;;-0.40;84.50;;;;;;5083366;28;20027;-63
2023/04/04 06:31:50;;;;;;;8.27;4.40;;;-0.60;84.80;;;;;;5084220;28;20020;-63
2023/04/04 06:34:16;;;;;;;11.05;4.78;;;-0.80;85.30;;;;;;5081203;28;20082;-63
2023/04/04 06:36:41;;;;;;;7.07;3.92;;;-0.80;85.70;;;;;;5076535;28;20122;-62
2023/04/04 06:39:07;;;;;;;9.77;5.15;;;-0.80;85.70;;;;;;5094491;28;20025;-62
2023/04/04 06:41:32;;;;;;;8.20;4.55;;;-0.70;85.50;;;;;;5089585;28;20027;-62
2023/04/04 06:43:59;;;;;;;10.60;5.07;;;-0.70;85.50;;;;;;5080418;28;20081;-62
2023/04/04 06:46:26;;;;;;;12.52;5.10;;;-0.70;85.80;;;;;;5084561;28;20020;-62
2023/04/04 06:48:51;;;;;;;10.57;4.50;;;-0.60;85.60;;;;;;5076207;28;20327;-62
2023/04/04 06:51:17;;;;;;;8.32;4.15;;;-0.50;85.20;;;;;;5081845;28;20020;-62
2023/04/04 06:53:43;;;;;;;11.98;4.57;;;-0.50;85.20;;;;;;5084908;28;20027;-62
2023/04/04 06:56:08;;;;;;;9.52;4.88;;;-0.40;85.20;;;;;;5079530;28;20066;-62
2023/04/04 06:58:34;;;;;;;9.43;4.97;;;-0.40;85.00;;;;;;5075345;28;20033;-62
2023/04/04 07:01:01;;;;;;;9.07;4.47;;;-0.40;85.00;;;;;;5087870;28;20077;-62
2023/04/04 07:03:26;;;;;;;10.65;4.60;;;-0.20;85.20;;;;;;5085352;28;20024;-62
2023/04/04 07:05:52;;;;;;;9.25;4.97;;;-0.10;84.50;;;;;;5079355;28;20037;-62
2023/04/04 07:08:18;;;;;;;9.43;4.95;;;-0.10;84.10;;;;;;5090704;28;20408;-62
2023/04/04 07:10:43;;;;;;;9.85;4.93;;;-0.10;84.50;;;;;;5084935;28;20413;-62
2023/04/04 07:13:09;;;;;;;8.95;4.57;;;0.00;84.60;;;;;;5097835;28;20107;-62
2023/04/04 07:15:35;;;;;;;9.63;4.68;;;0.20;83.90;;;;;;5100854;28;20024;-62
2023/04/04 07:18:01;;;;;;;13.73;5.10;;;0.30;83.50;;;;;;5087947;28;20036;-62
2023/04/04 07:20:27;;;;;;;9.23;5.30;;;0.30;83.30;;;;;;5090654;28;20112;-62
2023/04/04 07:22:53;;;;;;;10.38;4.85;;;0.30;83.30;;;;;;5100345;28;20103;-62
2023/04/04 07:25:18;;;;;;;9.95;5.00;;;0.40;83.20;;;;;;5087181;28;20368;-62
2023/04/04 07:27:44;;;;;;;9.38;4.55;;;0.50;82.80;;;;;;5102606;28;20058;-62
2023/04/04 07:30:10;;;;;;;10.52;4.55;;;0.60;82.70;;;;;;5100012;28;20031;-62
2023/04/04 07:32:36;;;;;;;10.05;5.18;;;0.80;83.00;;;;;;5097613;27;20029;-62
2023/04/04 07:35:04;;;;;;;8.95;4.47;;;1.00;82.20;;;;;;5083236;28;20023;-61
2023/04/04 07:37:29;;;;;;;11.48;5.13;;;1.00;80.90;;;;;;5084743;28;20082;-61
2023/04/04 07:39:55;;;;;;;10.90;4.47;;;1.10;80.30;;;;;;5089106;28;20028;-61
2023/04/04 07:42:24;;;;;;;8.93;4.45;;;1.00;80.30;;;;;;5082130;28;20017;-63
2023/04/04 07:44:50;;;;;;;11.65;4.80;;;1.00;80.20;;;;;;5086653;28;20032;-64
2023/04/04 07:47:16;;;;;;;11.13;5.95;;;1.00;79.90;;;;;;5081267;28;20016;-62
2023/04/04 07:49:44;;;;;;;10.57;4.90;;;1.10;79.70;;;;;;5100684;28;20324;-63
2023/04/04 07:52:10;;;;;;;9.73;5.43;;;1.10;80.10;;;;;;5101376;28;20020;-63
2023/04/04 07:54:39;;;;;;;9.70;4.90;;;1.30;80.20;;;;;;5097454;28;20024;-62
2023/04/04 07:57:08;;;;;;;10.60;5.50;;;1.30;79.00;;;;;;5094298;28;20132;-63
2023/04/04 07:59:35;;;;;;;10.35;5.05;;;1.50;79.10;;;;;;5088323;28;20043;-62
2023/04/04 08:02:00;;;;;;;11.77;5.68;;;1.60;78.80;;;;;;5096456;28;20438;-62
2023/04/04 08:04:26;;;;;;;11.15;5.45;;;1.70;79.30;;;;;;5101272;28;20036;-62
2023/04/04 08:06:52;;;;;;;9.95;4.80;;;1.90;79.00;;;;;;5102057;28;20024;-62
2023/04/04 08:09:17;;;;;;;11.70;5.03;;;2.10;77.20;;;;;;5101336;28;20036;-62
2023/04/04 08:11:43;;;;;;;10.57;4.30;;;2.40;76.20;;;;;;5102562;28;20481;-62
2023/04/04 08:14:10;;;;;;;8.73;3.95;;;2.50;75.70;;;;;;5083372;28;20109;-62
2023/04/04 08:16:37;;;;;;;11.05;4.68;;;3.10;74.40;;;;;;5084990;28;20024;-62
2023/04/04 08:19:03;;;;;;;10.27;4.20;;;4.10;71.60;;;;;;5081047;28;20035;-62
2023/04/04 08:21:28;;;;;;;8.00;4.47;;;4.90;70.30;;;;;;5081869;28;20032;-62
2023/04/04 08:23:54;;;;;;;7.65;4.07;;;6.10;68.00;;;;;;5084410;28;20073;-62
2023/04/04 08:26:20;;;;;;;8.77;4.43;;;6.50;66.10;;;;;;5088289;28;20032;-63
2023/04/04 08:28:46;;;;;;;11.25;5.07;;;6.80;65.30;;;;;;5092058;28;20032;-61
2023/04/04 08:31:12;;;;;;;9.02;4.50;;;6.60;65.10;;;;;;5079596;28;20882;-62
2023/04/04 08:33:38;;;;;;;8.25;4.07;;;6.30;66.20;;;;;;5093194;28;20082;-62
2023/04/04 08:36:04;;;;;;;11.82;4.68;;;6.70;66.00;;;;;;5086421;28;20031;-61
2023/04/04 08:38:29;;;;;;;8.82;4.20;;;6.80;65.50;;;;;;5084268;28;20049;-61
2023/04/04 08:40:55;;;;;;;10.88;4.45;;;6.60;64.40;;;;;;5089363;28;20309;-61
2023/04/04 08:43:23;;;;;;;8.38;4.00;;;6.00;65.60;;;;;;5082830;28;20073;-61
2023/04/04 08:45:52;;;;;;;7.90;3.78;;;5.80;66.30;;;;;;5085262;28;20293;-62
2023/04/04 08:48:20;;;;;;;8.40;3.70;;;6.00;67.80;;;;;;5092511;28;20032;-61
2023/04/04 08:50:46;;;;;;;6.88;3.28;;;6.60;67.40;;;;;;5085369;28;20024;-61
2023/04/04 08:53:13;;;;;;;6.95;3.80;;;7.80;65.90;;;;;;5082467;28;20040;-61
2023/04/04 08:55:39;;;;;;;8.80;3.80;;;8.30;62.90;;;;;;5077256;28;20032;-61
2023/04/04 08:58:04;;;;;;;6.45;3.58;;;7.80;62.50;;;;;;5080271;28;20059;-61
2023/04/04 09:00:31;;;;;;;6.97;3.92;;;7.70;62.70;;;;;;5083642;28;20082;-62
2023/04/04 09:03:08;;;;;;;9.35;3.75;;;7.30;61.60;;;;;;5083242;28;20052;-61
2023/04/04 09:05:34;;;;;;;10.25;3.47;;;7.20;63.90;;;;;;5093861;28;20032;-61
2023/04/04 09:08:04;;;;;;;7.30;3.22;;;7.90;63.30;;;;;;5083566;28;20040;-61
2023/04/04 09:10:30;;;;;;;7.88;3.00;;;8.30;61.60;;;;;;5086005;28;20023;-61
2023/04/04 09:12:57;;;;;;;8.82;3.67;;;8.90;60.40;;;;;;5084189;28;20032;-61
2023/04/04 09:15:23;;;;;;;7.18;3.53;;;8.80;59.80;;;;;;5087303;28;20036;-62
2023/04/04 09:17:49;;;;;;;7.35;3.00;;;8.50;60.90;;;;;;5081617;28;20143;-62
2023/04/04 09:20:32;;;;;;;6.97;3.58;;;8.30;60.60;;;;;;5094278;28;20099;-62
2023/04/04 09:22:58;;;;;;;6.97;3.38;;;8.20;61.20;;;;;;5080218;28;20032;-62
2023/04/04 09:25:24;;;;;;;8.68;3.50;;;8.20;62.80;;;;;;5081958;28;20054;-62
2023/04/04 09:27:52;;;;;;;8.10;3.28;;;8.90;61.40;;;;;;5089310;28;20115;-62
2023/04/04 09:30:18;;;;;;;6.25;3.20;;;9.40;60.80;;;;;;5080661;28;20039;-62
2023/04/04 09:32:43;;;;;;;7.95;3.47;;;9.40;58.50;;;;;;5088535;28;20028;-62
2023/04/04 09:35:11;;;;;;;7.93;3.45;;;9.70;58.70;;;;;;5082770;28;20024;-63
2023/04/04 09:37:39;;;;;;;6.25;3.03;;;9.70;59.30;;;;;;5082626;28;20025;-62
2023/04/04 09:40:07;;;;;;;6.78;3.30;;;9.40;58.80;;;;;;5091089;28;20036;-63
2023/04/04 09:42:32;;;;;;;6.57;3.00;;;8.90;60.40;;;;;;5079943;28;20094;-63
2023/04/04 09:44:59;;;;;;;7.20;3.53;;;9.30;61.20;;;;;;5076124;28;20025;-63
2023/04/04 09:47:26;;;;;;;7.22;3.10;;;9.30;59.20;;;;;;5082711;28;20021;-63
2023/04/04 09:49:52;;;;;;;5.55;3.00;;;9.50;58.20;;;;;;5090045;28;20386;-63
2023/04/04 09:52:22;;;;;;;6.25;3.22;;;9.60;58.00;;;;;;5088942;28;20032;-63
2023/04/04 09:54:58;;;;;;;7.32;3.38;;;9.50;59.70;;;;;;5081736;28;20028;-63
2023/04/04 09:57:34;;;;;;;6.07;3.03;;;9.30;58.40;;;;;;5088876;28;20109;-63
2023/04/04 10:00:02;;;;;;;6.07;3.22;;;8.90;58.70;;;;;;5084605;28;20044;-63
2023/04/04 10:02:31;;;;;;;6.63;3.35;;;9.10;61.10;;;;;;5078675;28;20021;-64
2023/04/04 10:04:57;;;;;;;5.95;2.90;;;9.60;59.70;;;;;;5082089;28;20016;-64
2023/04/04 10:07:28;;;;;;;7.00;3.28;;;9.90;58.90;;;;;;5077877;28;20093;-64
2023/04/04 10:09:54;;;;;;;6.47;3.65;;;9.30;57.20;;;;;;5081303;28;20447;-64
2023/04/04 10:12:26;;;;;;;6.18;3.40;;;8.90;60.20;;;;;;5080528;28;20041;-64
2023/04/04 10:14:56;;;;;;;7.70;3.38;;;8.90;60.70;;;;;;5077881;28;20028;-64
2023/04/04 10:17:24;;;;;;;8.88;3.47;;;9.20;61.10;;;;;;5085909;28;20036;-64
2023/04/04 10:19:51;;;;;;;8.88;3.45;;;9.30;60.00;;;;;;5077114;28;20031;-64
2023/04/04 10:22:19;;;;;;;7.90;3.53;;;9.10;59.70;;;;;;5082395;28;20031;-64
2023/04/04 10:24:46;;;;;;;6.10;3.38;;;9.00;58.50;;;;;;5079553;28;20044;-64
2023/04/04 10:27:11;;;;;;;6.45;3.20;;;8.80;59.90;;;;;;5077563;28;21488;-64
2023/04/04 10:29:37;;;;;;;7.45;3.22;;;9.80;57.60;;;;;;5076274;28;20059;-64
2023/04/04 10:32:07;;;;;;;6.72;3.58;;;10.20;57.40;;;;;;5085988;28;20416;-64
2023/04/04 10:34:46;;;;;;;7.45;3.08;;;9.60;58.60;;;;;;5075725;28;20417;-64
2023/04/04 10:37:23;;;;;;;6.28;3.03;;;9.40;58.70;;;;;;5078396;28;20081;-65
2023/04/04 10:40:04;;;;;;;7.63;2.85;;;9.50;58.50;;;;;;5075484;28;20025;-64
2023/04/04 10:42:40;;;;;;;6.65;3.30;;;9.30;58.70;;;;;;5089984;28;20024;-66
2023/04/04 10:45:11;;;;;;;7.25;3.08;;;9.60;59.00;;;;;;5080695;28;20035;-66
2023/04/04 10:47:38;;;;;;;6.57;3.60;;;9.80;59.60;;;;;;5083553;28;20026;-66
2023/04/04 10:50:11;;;;;;;5.88;3.05;;;9.60;57.90;;;;;;5084990;28;20028;-66
2023/04/04 10:52:39;;;;;;;7.20;3.53;;;9.70;57.80;;;;;;5083280;28;20039;-66
2023/04/04 10:55:08;;;;;;;6.22;3.70;;;9.70;58.00;;;;;;5075659;28;20456;-66
2023/04/04 10:57:43;;;;;;;8.07;3.53;;;9.60;59.00;;;;;;5080282;28;20337;-66
2023/04/04 11:00:22;;;;;;;5.65;3.15;;;9.40;58.50;;;;;;5076818;28;20123;-65
2023/04/04 11:02:56;;;;;;;6.70;3.47;;;9.90;59.80;;;;;;5083821;28;20332;-65
2023/04/04 11:05:24;;;;;;;7.80;3.70;;;10.30;59.30;;;;;;5077337;28;20084;-65
2023/04/04 11:07:59;;;;;;;7.93;3.97;;;10.40;59.10;;;;;;5094825;28;20032;-65
2023/04/04 11:10:29;;;;;;;6.22;3.55;;;10.30;58.10;;;;;;5084973;28;20016;-65
2023/04/04 11:13:03;;;;;;;7.18;3.30;;;9.90;57.20;;;;;;5084984;28;20028;-65
2023/04/04 11:15:45;;;;;;;6.30;3.17;;;10.30;60.10;;;;;;5088187;28;20032;-66
2023/04/04 11:18:12;;;;;;;6.43;3.47;;;10.40;59.60;;;;;;5077456;28;20101;-66
2023/04/04 11:20:44;;;;;;;7.60;3.38;;;10.60;58.80;;;;;;5077193;28;20036;-66
2023/04/04 11:23:24;;;;;;;7.43;3.85;;;10.50;58.60;;;;;;5081222;28;20145;-65
2023/04/04 11:25:54;;;;;;;6.80;3.35;;;10.20;58.30;;;;;;5080105;28;20033;-65
2023/04/04 11:28:35;;;;;;;5.90;3.28;;;10.50;59.20;;;;;;5075474;28;20420;-64
2023/04/04 11:31:16;;;;;;;6.50;3.67;;;10.40;58.10;;;;;;5078687;28;20437;-64
2023/04/04 11:34:03;;;;;;;8.05;3.55;;;10.20;57.50;;;;;;5076671;28;20017;-64
2023/04/04 11:36:38;;;;;;;8.77;4.07;;;10.00;57.10;;;;;;5087404;28;20097;-66
2023/04/04 11:39:11;;;;;;;7.90;3.78;;;9.90;57.10;;;;;;5077981;28;20029;-67
2023/04/04 11:41:52;;;;;;;6.63;3.67;;;9.90;58.00;;;;;;5081624;28;20362;-65
2023/04/04 11:44:20;;;;;;;7.35;3.80;;;9.40;58.60;;;;;;5085622;28;20087;-65
2023/04/04 11:46:47;;;;;;;8.00;3.75;;;9.50;61.10;;;;;;5074839;28;20054;-65
2023/04/04 11:49:14;;;;;;;8.00;4.07;;;9.70;60.10;;;;;;5084548;28;20055;-65
2023/04/04 11:51:40;;;;;;;6.43;3.70;;;9.70;60.20;;;;;;5083335;28;20046;-65
2023/04/04 11:54:16;;;;;;;8.18;4.38;;;9.80;59.10;;;;;;5094462;28;20032;-65
2023/04/04 11:56:45;;;;;;;9.07;4.13;;;10.10;61.70;;;;;;5075233;28;20141;-66
2023/04/04 11:59:19;;;;;;;7.45;3.60;;;10.50;58.10;;;;;;5083050;28;20028;-66
2023/04/04 12:01:45;;;;;;;6.28;3.55;;;10.10;57.40;;;;;;5085167;28;20038;-66
2023/04/04 12:04:11;;;;;;;7.90;4.43;;;9.80;56.70;;;;;;5078212;28;20098;-66
2023/04/04 12:06:39;;;;;;;6.90;3.72;;;9.90;59.70;;;;;;5081411;28;20016;-66
2023/04/04 12:09:05;;;;;;;6.32;3.67;;;10.10;59.20;;;;;;5097223;28;20102;-66
2023/04/04 12:11:35;;;;;;;7.65;3.58;;;10.00;59.10;;;;;;5089351;28;20480;-65
2023/04/04 12:14:01;;;;;;;6.22;3.42;;;10.40;58.50;;;;;;5077267;28;20143;-66
2023/04/04 12:16:27;;;;;;;7.07;3.88;;;10.70;58.50;;;;;;5090760;28;20099;-66
2023/04/04 12:18:54;;;;;;;7.78;3.90;;;10.60;59.50;;;;;;5080301;28;20028;-66
2023/04/04 12:21:20;;;;;;;5.75;3.67;;;10.50;57.20;;;;;;5080503;28;20012;-66
2023/04/04 12:23:47;;;;;;;6.72;3.85;;;10.10;56.60;;;;;;5081520;28;20077;-66
2023/04/04 12:26:14;;;;;;;9.15;4.15;;;9.60;58.10;;;;;;5087786;28;20024;-66
2023/04/04 12:28:42;;;;;;;8.77;4.15;;;9.40;60.00;;;;;;5077052;28;20036;-66
2023/04/04 12:31:08;;;;;;;6.20;3.70;;;9.60;58.10;;;;;;5087856;28;20336;-66
2023/04/04 12:33:35;;;;;;;9.93;4.32;;;9.70;58.80;;;;;;5098929;28;20107;-65
2023/04/04 12:36:05;;;;;;;8.32;4.32;;;9.90;60.80;;;;;;5082099;28;20035;-66
2023/04/04 12:38:38;;;;;;;7.20;3.90;;;10.10;58.50;;;;;;5098710;28;20035;-66
2023/04/04 12:41:15;;;;;;;7.63;4.03;;;10.10;58.90;;;;;;5085213;28;20294;-66
2023/04/04 12:43:45;;;;;;;6.10;3.72;;;9.80;57.50;;;;;;5076928;28;20032;-65
2023/04/04 12:46:11;;;;;;;7.40;3.83;;;9.50;60.00;;;;;;5080898;28;20023;-65
2023/04/04 12:48:37;;;;;;;8.98;3.95;;;9.80;61.80;;;;;;5095009;28;20464;-65